Time;durP1;ratioP1;P1;durP2;ratioP2;P2;SDS_P1;SDS_P2;PMS_P1;PMS_P2;Temp;Humidity;BMP_temperature;BMP_pressure;BME280_temperature;BME280_humidity;BME280_pressure;Samples;Min_cycle;Max_cycle;Signal;HPM_P1;HPM_P2
2021/11/17 02:35:19;;;;;;;23.65;6.63;;;6.90;99.90;;;;;;20714063;28;20057;-45
2021/11/17 02:45:42;;;;;;;20.65;8.32;;;6.90;99.90;;;;;;20718389;28;20056;-46
2021/11/17 02:56:00;;;;;;;17.02;5.50;;;7.10;99.90;;;;;;20720490;28;20144;-45
2021/11/17 03:06:11;;;;;;;18.92;6.38;;;7.00;99.90;;;;;;20709212;28;20509;-45
2021/11/17 03:16:17;;;;;;;18.92;5.50;;;6.90;99.90;;;;;;20718671;28;20064;-45
2021/11/17 03:26:33;;;;;;;16.48;6.03;;;7.00;99.90;;;;;;20708180;28;20301;-46
2021/11/17 03:36:51;;;;;;;20.75;5.20;;;6.90;99.90;;;;;;20705102;28;20088;-45
2021/11/17 03:47:01;;;;;;;18.23;5.13;;;7.00;99.90;;;;;;20707483;28;20048;-45
2021/11/17 03:57:17;;;;;;;17.35;4.50;;;7.00;99.90;;;;;;20702830;28;20136;-45
2021/11/17 04:07:55;;;;;;;16.40;5.22;;;7.10;99.90;;;;;;20674540;28;20045;-45
2021/11/17 04:18:12;;;;;;;19.40;7.25;;;7.10;99.90;;;;;;20675794;28;20049;-44
2021/11/17 04:28:37;;;;;;;23.03;7.53;;;7.00;99.90;;;;;;20675842;28;20084;-45
2021/11/17 04:39:08;;;;;;;23.58;5.78;;;6.80;99.90;;;;;;20670160;28;20446;-44
2021/11/17 04:49:27;;;;;;;18.77;5.57;;;6.90;99.90;;;;;;20673556;28;20580;-45
2021/11/17 04:59:52;;;;;;;21.83;5.97;;;7.00;99.90;;;;;;20674082;28;20190;-45
2021/11/17 05:09:56;;;;;;;20.50;6.15;;;7.00;99.90;;;;;;20676740;28;20689;-45
2021/11/17 05:20:21;;;;;;;21.60;4.88;;;7.00;99.90;;;;;;20682886;28;20049;-44
2021/11/17 05:30:49;;;;;;;26.02;6.05;;;7.10;99.90;;;;;;20688170;28;20661;-44
2021/11/17 05:41:08;;;;;;;20.38;5.03;;;7.10;99.90;;;;;;20672649;28;20060;-44
2021/11/17 05:51:15;;;;;;;14.43;5.35;;;7.10;99.90;;;;;;20686465;28;20477;-44
2021/11/17 06:01:37;;;;;;;15.70;4.90;;;7.30;99.90;;;;;;20686437;28;20537;-44
2021/11/17 06:12:05;;;;;;;16.02;5.93;;;7.30;99.90;;;;;;20692396;28;20331;-45
2021/11/17 06:22:06;;;;;;;;;;;7.30;99.90;;;;;;20701261;28;20045;-45
2021/11/17 06:32:09;;;;;;;25.92;7.97;;;7.40;99.90;;;;;;20699686;28;19917;-44
2021/11/17 06:42:13;;;;;;;26.05;6.20;;;7.40;99.90;;;;;;20701611;28;20080;-45
2021/11/17 06:52:14;;;;;;;27.55;8.07;;;7.50;99.90;;;;;;20686216;28;20034;-45
2021/11/17 07:02:16;;;;;;;28.85;7.50;;;7.60;99.90;;;;;;20691696;28;20076;-44
2021/11/17 07:12:17;;;;;;;35.13;9.40;;;7.60;99.90;;;;;;20705994;28;20041;-45
2021/11/17 07:22:17;;;;;;;25.02;7.50;;;7.70;99.90;;;;;;20699702;28;20052;-45
2021/11/17 07:32:19;;;;;;;33.45;9.30;;;7.70;99.90;;;;;;20689156;28;20056;-45
2021/11/17 07:42:20;;;;;;;28.13;8.13;;;7.80;99.90;;;;;;20725965;28;20453;-45
2021/11/17 07:52:20;;;;;;;28.67;8.18;;;7.90;99.90;;;;;;20734236;28;20046;-45
2021/11/17 08:02:21;;;;;;;30.27;8.27;;;8.00;99.90;;;;;;20733328;28;20037;-45
2021/11/17 08:12:22;;;;;;;28.58;8.15;;;8.10;99.90;;;;;;20724597;28;20049;-45
2021/11/17 08:22:23;;;;;;;32.20;7.75;;;8.30;99.90;;;;;;20729920;28;20394;-45
2021/11/17 08:32:25;;;;;;;20.02;7.25;;;8.40;99.90;;;;;;20689780;28;20045;-44
2021/11/17 08:42:25;;;;;;;37.78;8.32;;;8.40;99.90;;;;;;20728962;28;20045;-44
2021/11/17 08:52:27;;;;;;;34.92;9.27;;;8.60;99.90;;;;;;20726958;28;20034;-45
2021/11/17 09:02:28;;;;;;;23.80;7.85;;;8.70;99.90;;;;;;20741783;28;20044;-44
2021/11/17 09:12:29;;;;;;;21.50;8.63;;;8.90;99.90;;;;;;20737805;28;20046;-45
2021/11/17 09:22:29;;;;;;;21.83;6.87;;;8.90;99.90;;;;;;20741586;28;20303;-44
2021/11/17 09:32:31;;;;;;;28.92;8.30;;;9.10;99.90;;;;;;20719322;28;20289;-44
2021/11/17 09:42:32;;;;;;;31.52;8.73;;;9.40;99.90;;;;;;20727494;28;20037;-44
2021/11/17 09:52:41;;;;;;;27.02;9.00;;;9.60;99.90;;;;;;20735818;28;20064;-44
2021/11/17 10:02:48;;;;;;;41.63;10.55;;;9.80;99.90;;;;;;20736018;28;20037;-44
2021/11/17 10:13:21;;;;;;;25.98;9.07;;;10.00;99.90;;;;;;20733750;28;20734;-44
2021/11/17 10:23:50;;;;;;;23.52;8.20;;;10.30;99.90;;;;;;20718090;28;20065;-45
2021/11/17 10:34:10;;;;;;;25.38;7.57;;;10.30;99.90;;;;;;20721720;28;20046;-44
2021/11/17 10:44:11;;;;;;;16.70;5.57;;;10.50;99.90;;;;;;20735030;28;20070;-44
2021/11/17 10:54:12;;;;;;;17.70;6.20;;;10.70;99.90;;;;;;20732170;28;20049;-45
2021/11/17 11:04:30;;;;;;;11.68;4.78;;;10.80;99.90;;;;;;20735086;28;20300;-44
2021/11/17 11:14:38;;;;;;;13.27;3.83;;;10.80;99.90;;;;;;20730532;28;20045;-45
2021/11/17 11:25:04;;;;;;;;;;;11.00;99.90;;;;;;20731897;28;20131;-44
2021/11/17 11:35:05;;;;;;;5.60;1.23;;;11.30;99.90;;;;;;20734029;28;19927;-45
2021/11/17 11:45:09;;;;;;;5.38;1.85;;;11.70;99.90;;;;;;20738821;28;20488;-45
2021/11/17 11:55:14;;;;;;;5.03;1.08;;;12.60;99.90;;;;;;20691595;28;20051;-44
2021/11/17 12:05:33;;;;;;;9.00;0.77;;;13.30;99.90;;;;;;20675629;28;20468;-45
2021/11/17 12:15:37;;;;;;;12.77;1.47;;;13.20;99.90;;;;;;20704662;28;20046;-44
2021/11/17 12:25:38;;;;;;;4.43;0.90;;;12.20;99.90;;;;;;20715534;28;20576;-45
2021/11/17 12:35:46;;;;;;;5.10;0.93;;;12.80;99.90;;;;;;20725765;28;21288;-45
2021/11/17 12:46:07;;;;;;;5.15;0.65;;;13.50;99.90;;;;;;20717987;28;20420;-45
2021/11/17 12:56:25;;;;;;;6.07;1.15;;;13.40;99.90;;;;;;20727590;28;20060;-45
2021/11/17 13:06:40;;;;;;;1.83;0.47;;;13.70;99.90;;;;;;20704151;28;20045;-45
2021/11/17 13:16:46;;;;;;;1.20;0.50;;;13.70;99.90;;;;;;20692408;28;20548;-45
2021/11/17 13:26:52;;;;;;;2.92;0.90;;;12.90;99.90;;;;;;20713903;28;20049;-45
2021/11/17 13:36:55;;;;;;;2.88;0.30;;;12.50;99.90;;;;;;20708204;28;20110;-44
2021/11/17 13:46:58;;;;;;;2.95;0.70;;;11.90;99.90;;;;;;20730657;28;20133;-45
2021/11/17 13:57:03;;;;;;;4.43;0.45;;;11.90;99.90;;;;;;20725337;28;20037;-44
2021/11/17 14:07:05;;;;;;;3.67;0.80;;;11.90;99.90;;;;;;20714645;28;20077;-44
2021/11/17 14:17:07;;;;;;;8.18;1.25;;;12.10;99.90;;;;;;20700264;28;20060;-45
2021/11/17 14:27:10;;;;;;;2.45;1.13;;;12.30;99.90;;;;;;20707021;28;20050;-45
2021/11/17 14:37:11;;;;;;;3.10;0.47;;;12.80;99.90;;;;;;20719072;28;20038;-45
2021/11/17 14:47:14;;;;;;;1.40;0.40;;;12.10;99.90;;;;;;20708274;28;20532;-45
2021/11/17 14:57:14;;;;;;;4.38;1.75;;;11.50;99.90;;;;;;20720018;28;20033;-45
2021/11/17 15:07:15;;;;;;;3.75;0.35;;;11.30;99.90;;;;;;20711086;28;20132;-45
2021/11/17 15:17:16;;;;;;;2.95;0.63;;;11.00;99.90;;;;;;20720880;28;20038;-45
2021/11/17 15:27:31;;;;;;;4.57;0.98;;;10.50;99.90;;;;;;20725749;28;20397;-45
2021/11/17 15:37:33;;;;;;;4.70;0.60;;;10.20;99.90;;;;;;20729544;28;20054;-45
2021/11/17 15:47:33;;;;;;;2.15;0.73;;;9.90;99.90;;;;;;20717091;28;20364;-45
2021/11/17 15:57:34;;;;;;;1.90;0.63;;;9.70;99.90;;;;;;20728902;28;20060;-45
2021/11/17 16:07:35;;;;;;;4.15;0.93;;;9.40;99.90;;;;;;20748189;28;20124;-45
2021/11/17 16:17:37;;;;;;;1.63;0.90;;;9.20;99.90;;;;;;20728481;28;20051;-45
2021/11/17 16:27:39;;;;;;;2.22;0.40;;;8.90;99.90;;;;;;20726591;28;20037;-44
2021/11/17 16:37:40;;;;;;;4.15;0.95;;;8.80;99.90;;;;;;20728641;28;20038;-45
2021/11/17 16:47:41;;;;;;;1.20;0.45;;;8.60;99.90;;;;;;20725202;28;20050;-44
2021/11/17 16:57:44;;;;;;;2.53;0.60;;;8.50;99.90;;;;;;20729370;28;20045;-45
2021/11/17 17:07:45;;;;;;;4.43;0.63;;;8.40;99.90;;;;;;20727493;28;20049;-45
2021/11/17 17:17:47;;;;;;;2.80;1.05;;;8.40;99.90;;;;;;20730229;28;20037;-45
2021/11/17 17:27:48;;;;;;;3.70;1.13;;;8.40;99.90;;;;;;20728612;28;20049;-45
2021/11/17 17:37:49;;;;;;;11.05;1.15;;;8.50;99.90;;;;;;20739762;28;20048;-45
2021/11/17 17:47:50;;;;;;;3.70;1.08;;;8.70;99.90;;;;;;20748392;28;20589;-44
2021/11/17 17:57:51;;;;;;;1.95;0.73;;;8.70;99.90;;;;;;20729741;28;20520;-45
2021/11/17 18:07:54;;;;;;;5.90;0.87;;;8.60;99.90;;;;;;20725227;28;20533;-45
2021/11/17 18:17:54;;;;;;;4.38;1.10;;;8.40;99.90;;;;;;20709645;28;21107;-45
2021/11/17 18:27:55;;;;;;;5.32;1.05;;;8.30;99.90;;;;;;20688179;28;20683;-45
2021/11/17 18:37:56;;;;;;;11.73;1.88;;;8.10;99.90;;;;;;20718587;28;20041;-45
2021/11/17 18:47:59;;;;;;;5.30;1.00;;;7.90;99.90;;;;;;20714220;28;20678;-45
2021/11/17 18:58:00;;;;;;;6.63;1.33;;;8.00;99.90;;;;;;20731672;28;20033;-45
2021/11/17 19:08:02;;;;;;;9.20;2.10;;;8.00;99.90;;;;;;20729746;28;20054;-44
2021/11/17 19:18:03;;;;;;;3.65;1.48;;;7.90;99.90;;;;;;20731647;28;20406;-45
2021/11/17 19:28:04;;;;;;;4.20;1.48;;;7.80;99.90;;;;;;20731074;28;20641;-45
2021/11/17 19:38:07;;;;;;;4.65;1.58;;;7.80;99.90;;;;;;20720532;28;22001;-45
2021/11/17 19:48:08;;;;;;;2.70;0.88;;;7.90;99.90;;;;;;20701568;28;20456;-45
2021/11/17 19:58:09;;;;;;;3.17;1.25;;;7.80;99.90;;;;;;20692649;28;20096;-45
2021/11/17 20:08:10;;;;;;;4.03;1.95;;;7.70;99.90;;;;;;20705429;28;20141;-45
2021/11/17 20:18:12;;;;;;;3.60;1.30;;;7.60;99.90;;;;;;20707352;28;20228;-45
2021/11/17 20:28:17;;;;;;;5.93;1.35;;;7.60;99.90;;;;;;20696158;28;20041;-45
2021/11/17 20:38:18;;;;;;;6.75;1.35;;;7.40;99.90;;;;;;20708992;28;20038;-45
2021/11/17 20:48:21;;;;;;;2.57;1.27;;;7.30;99.90;;;;;;20736443;28;20092;-45
2021/11/17 20:58:22;;;;;;;2.42;1.33;;;7.30;99.90;;;;;;20735550;28;20268;-45
2021/11/17 21:08:23;;;;;;;5.65;1.50;;;7.50;99.90;;;;;;20751548;28;21301;-45
2021/11/17 21:18:25;;;;;;;4.95;1.40;;;7.60;99.90;;;;;;20748241;28;20037;-45
2021/11/17 21:28:27;;;;;;;2.08;1.73;;;7.70;99.90;;;;;;20739319;28;20140;-45
2021/11/17 21:38:27;;;;;;;4.75;1.80;;;7.70;99.90;;;;;;20747567;28;20375;-45
2021/11/17 21:48:28;;;;;;;3.70;1.13;;;7.70;99.90;;;;;;20729569;28;20107;-45
2021/11/17 21:58:29;;;;;;;4.75;1.10;;;7.80;99.90;;;;;;20728128;28;20069;-45
2021/11/17 22:08:33;;;;;;;5.82;1.40;;;7.80;99.90;;;;;;20741984;28;20816;-45
2021/11/17 22:18:35;;;;;;;3.03;1.13;;;7.80;99.90;;;;;;20744870;28;20069;-45
2021/11/17 22:28:38;;;;;;;6.10;1.90;;;7.80;99.90;;;;;;20727637;28;20170;-45
2021/11/17 22:38:40;;;;;;;5.38;1.83;;;7.70;99.90;;;;;;20724254;28;20042;-45
2021/11/17 22:48:43;;;;;;;4.18;1.17;;;7.60;99.90;;;;;;20723549;28;20615;-45
2021/11/17 22:58:45;;;;;;;5.43;1.52;;;7.60;99.90;;;;;;20734160;28;20069;-45
2021/11/17 23:08:46;;;;;;;6.20;1.85;;;7.50;99.90;;;;;;20724468;28;20146;-45
2021/11/17 23:18:47;;;;;;;6.53;2.00;;;7.50;99.90;;;;;;20727558;28;20376;-45
2021/11/17 23:28:51;;;;;;;3.53;1.35;;;7.50;99.90;;;;;;20718911;28;20048;-51
2021/11/17 23:38:52;;;;;;;10.10;2.13;;;7.30;99.90;;;;;;20718427;28;20061;-45
2021/11/17 23:48:53;;;;;;;9.05;1.58;;;7.20;99.90;;;;;;20723720;28;20044;-45
2021/11/17 23:58:54;;;;;;;6.60;1.30;;;7.30;99.90;;;;;;20721720;28;20470;-45
